createdAt,value
2019-03-21T00:01:56.205Z,6.22
2019-03-21T00:04:22.865Z,5.85
2019-03-21T00:06:49.645Z,6.08
2019-03-21T00:09:16.389Z,5.17
2019-03-21T00:11:43.245Z,4.50
2019-03-21T00:14:12.767Z,4.87
2019-03-21T00:16:39.645Z,5.80
2019-03-21T00:19:06.566Z,4.15
2019-03-21T00:21:33.229Z,5.58
2019-03-21T00:24:00.154Z,4.20
2019-03-21T00:26:26.895Z,4.42
2019-03-21T00:28:53.651Z,3.65
2019-03-21T00:31:20.774Z,3.83
2019-03-21T00:33:50.560Z,3.80
2019-03-21T00:36:24.690Z,3.27
2019-03-21T00:38:51.454Z,3.75
2019-03-21T00:41:18.098Z,4.30
2019-03-21T00:43:44.713Z,4.62
2019-03-21T00:46:11.692Z,4.97
2019-03-21T00:48:38.481Z,3.67
2019-03-21T00:51:05.049Z,4.78
2019-03-21T00:53:31.813Z,3.40
2019-03-21T00:55:58.380Z,3.98
2019-03-21T00:58:25.246Z,5.37
2019-03-21T01:00:52.003Z,4.55
2019-03-21T01:03:18.853Z,4.28
2019-03-21T01:05:45.529Z,4.72
2019-03-21T01:08:12.279Z,4.45
2019-03-21T01:10:39.250Z,4.80
2019-03-21T01:13:06.197Z,4.20
2019-03-21T01:15:33.082Z,4.03
2019-03-21T01:17:59.767Z,3.60
2019-03-21T01:20:28.954Z,3.50
2019-03-21T01:23:01.300Z,3.55
2019-03-21T01:25:28.115Z,3.47
2019-03-21T01:27:54.753Z,3.72
2019-03-21T01:30:21.325Z,3.60
2019-03-21T01:32:50.872Z,4.85
2019-03-21T01:35:17.515Z,4.28
2019-03-21T01:37:44.452Z,3.00
2019-03-21T01:40:11.229Z,3.12
2019-03-21T01:42:37.896Z,3.60
2019-03-21T01:45:04.671Z,2.52
2019-03-21T01:47:31.644Z,3.47
2019-03-21T01:49:58.138Z,3.22
2019-03-21T01:52:24.852Z,3.67
2019-03-21T01:54:51.460Z,3.42
2019-03-21T01:57:18.029Z,3.40
2019-03-21T01:59:44.592Z,2.60
2019-03-21T02:02:11.233Z,3.30
2019-03-21T02:04:37.906Z,2.52
2019-03-21T02:07:04.592Z,3.92
2019-03-21T02:09:31.139Z,3.40
2019-03-21T02:11:57.735Z,3.00
2019-03-21T02:14:24.310Z,2.80
2019-03-21T02:16:50.957Z,2.55
2019-03-21T02:19:17.483Z,3.08
2019-03-21T02:21:44.172Z,2.52
2019-03-21T02:24:10.718Z,3.47
2019-03-21T02:26:37.330Z,3.08
2019-03-21T02:29:03.779Z,3.02
2019-03-21T02:31:30.304Z,3.87
2019-03-21T02:33:56.781Z,3.10
2019-03-21T02:36:23.279Z,3.02
2019-03-21T02:38:49.897Z,3.65
2019-03-21T02:41:16.375Z,3.50
2019-03-21T02:43:42.894Z,2.50
2019-03-21T02:46:09.540Z,3.47
2019-03-21T02:48:36.145Z,3.00
2019-03-21T02:51:02.643Z,3.52
2019-03-21T02:53:29.197Z,3.42
2019-03-21T02:55:55.622Z,3.80
2019-03-21T02:58:22.105Z,3.58
2019-03-21T03:00:48.566Z,3.22
2019-03-21T03:03:15.086Z,3.27
2019-03-21T03:05:41.669Z,3.55
2019-03-21T03:08:08.332Z,3.33
2019-03-21T03:10:34.906Z,3.10
2019-03-21T03:13:01.416Z,3.80
2019-03-21T03:15:28.010Z,3.85
2019-03-21T03:17:54.551Z,3.33
2019-03-21T03:20:20.991Z,3.65
2019-03-21T03:22:47.572Z,3.00
2019-03-21T03:25:14.170Z,3.15
2019-03-21T03:27:40.764Z,4.00
2019-03-21T03:30:07.337Z,2.87
2019-03-21T03:32:33.883Z,3.40
2019-03-21T03:35:00.887Z,3.40
2019-03-21T03:37:27.672Z,3.33
2019-03-21T03:39:54.221Z,3.70
2019-03-21T03:42:20.647Z,3.30
2019-03-21T03:44:47.265Z,3.47
2019-03-21T03:47:13.785Z,3.60
2019-03-21T03:49:40.266Z,3.70
2019-03-21T03:52:06.883Z,3.12
2019-03-21T03:54:33.331Z,3.42
2019-03-21T03:56:59.790Z,3.22
2019-03-21T03:59:26.291Z,3.20
2019-03-21T04:01:52.870Z,3.15
2019-03-21T04:04:19.312Z,3.80
2019-03-21T04:06:46.016Z,3.87
2019-03-21T04:09:12.585Z,3.45
2019-03-21T04:11:39.049Z,4.42
2019-03-21T04:14:05.576Z,4.15
2019-03-21T04:16:31.999Z,3.85
2019-03-21T04:18:58.491Z,4.08
2019-03-21T04:21:25.065Z,3.70
2019-03-21T04:23:51.532Z,2.72
2019-03-21T04:26:18.138Z,3.90
2019-03-21T04:28:44.673Z,3.98
2019-03-21T04:31:11.254Z,3.95
2019-03-21T04:33:37.737Z,3.22
2019-03-21T04:36:04.291Z,3.45
2019-03-21T04:38:30.749Z,3.17
2019-03-21T04:40:57.206Z,3.47
2019-03-21T04:43:23.736Z,3.72
2019-03-21T04:45:50.211Z,2.62
2019-03-21T04:48:16.777Z,3.15
2019-03-21T04:50:43.409Z,3.47
2019-03-21T04:53:09.990Z,3.72
2019-03-21T04:55:36.466Z,3.25
2019-03-21T04:58:02.995Z,3.70
2019-03-21T05:00:29.486Z,3.20
2019-03-21T05:02:55.964Z,3.50
2019-03-21T05:05:22.449Z,3.15
2019-03-21T05:07:49.144Z,3.75
2019-03-21T05:10:15.640Z,3.92
2019-03-21T05:12:42.213Z,3.60
2019-03-21T05:15:08.733Z,3.95
2019-03-21T05:17:35.250Z,3.50
2019-03-21T05:20:01.740Z,3.45
2019-03-21T05:22:28.224Z,3.72
2019-03-21T05:24:54.730Z,3.35
2019-03-21T05:27:21.221Z,3.70
2019-03-21T05:29:47.833Z,4.30
2019-03-21T05:32:14.373Z,3.80
2019-03-21T05:34:40.839Z,4.40
2019-03-21T05:37:07.314Z,4.05
2019-03-21T05:39:33.752Z,5.03
2019-03-21T05:42:00.231Z,4.47
2019-03-21T05:44:26.757Z,4.20
2019-03-21T05:46:53.221Z,3.70
2019-03-21T05:49:19.793Z,5.15
2019-03-21T05:51:46.400Z,3.40
2019-03-21T05:54:12.938Z,4.17
2019-03-21T05:56:39.419Z,4.65
2019-03-21T05:59:05.985Z,6.03
2019-03-21T06:01:32.468Z,7.22
2019-03-21T06:03:59.008Z,8.75
2019-03-21T06:06:25.499Z,5.00
2019-03-21T06:08:52.074Z,4.20
2019-03-21T06:11:18.716Z,4.67
2019-03-21T06:13:45.330Z,4.92
2019-03-21T06:16:12.098Z,5.35
2019-03-21T06:18:38.653Z,5.20
2019-03-21T06:21:05.560Z,5.22
2019-03-21T06:23:32.395Z,4.78
2019-03-21T06:25:59.264Z,5.22
2019-03-21T06:28:26.010Z,4.78
2019-03-21T06:30:52.761Z,5.40
2019-03-21T06:33:22.806Z,6.50
2019-03-21T06:35:49.732Z,5.95
2019-03-21T06:38:16.594Z,5.83
2019-03-21T06:40:43.212Z,5.40
2019-03-21T06:43:10.117Z,5.90
2019-03-21T06:45:47.516Z,6.08
2019-03-21T06:48:08.818Z,6.50
2019-03-21T06:50:35.365Z,6.72
2019-03-21T06:53:03.273Z,6.40
2019-03-21T06:55:30.109Z,4.80
2019-03-21T06:57:56.776Z,5.35
2019-03-21T07:00:25.043Z,5.40
2019-03-21T07:02:51.732Z,4.85
2019-03-21T07:05:18.391Z,5.62
2019-03-21T07:07:45.243Z,6.05
2019-03-21T07:10:11.816Z,5.92
2019-03-21T07:12:38.535Z,6.12
2019-03-21T07:15:05.138Z,6.15
2019-03-21T07:17:31.690Z,6.60
2019-03-21T07:19:58.252Z,6.47
2019-03-21T07:22:25.116Z,6.60
2019-03-21T07:24:52.596Z,7.40
2019-03-21T07:27:19.566Z,6.00
2019-03-21T07:29:46.384Z,7.23
2019-03-21T07:32:13.096Z,6.57
2019-03-21T07:34:40.060Z,5.70
2019-03-21T07:37:07.019Z,6.50
2019-03-21T07:39:33.789Z,5.70
2019-03-21T07:42:01.395Z,7.33
2019-03-21T07:44:28.331Z,4.90
2019-03-21T07:46:54.987Z,5.43
2019-03-21T07:49:21.859Z,5.60
2019-03-21T07:51:48.354Z,4.90
2019-03-21T07:54:15.106Z,6.40
2019-03-21T07:56:45.107Z,4.67
2019-03-21T07:59:11.985Z,5.27
2019-03-21T08:01:38.664Z,5.60
2019-03-21T08:04:05.392Z,4.53
2019-03-21T08:06:32.071Z,5.50
2019-03-21T08:08:58.815Z,5.07
2019-03-21T08:11:25.684Z,5.27
2019-03-21T08:13:52.382Z,6.20
2019-03-21T08:16:18.899Z,6.23
2019-03-21T08:18:45.391Z,5.43
2019-03-21T08:21:11.850Z,5.70
2019-03-21T08:23:38.374Z,5.70
2019-03-21T08:26:04.841Z,7.73
2019-03-21T08:28:31.331Z,8.43
2019-03-21T08:30:57.841Z,8.27
2019-03-21T08:33:24.284Z,8.07
2019-03-21T08:35:50.729Z,7.97
2019-03-21T08:38:17.214Z,7.47
2019-03-21T08:40:43.676Z,6.20
2019-03-21T08:43:10.130Z,6.50
2019-03-21T08:45:36.629Z,4.97
2019-03-21T08:48:03.091Z,4.27
2019-03-21T08:50:29.551Z,4.67
2019-03-21T08:52:56.057Z,4.83
2019-03-21T08:55:22.571Z,5.57
2019-03-21T08:57:49.031Z,6.00
2019-03-21T09:00:15.531Z,6.57
2019-03-21T09:02:41.950Z,6.20
2019-03-21T09:05:08.430Z,6.30
2019-03-21T09:07:34.970Z,5.43
2019-03-21T09:10:01.471Z,5.80
2019-03-21T09:12:27.931Z,4.90
2019-03-21T09:14:54.450Z,5.90
2019-03-21T09:17:20.872Z,5.60
2019-03-21T09:19:47.350Z,5.50
2019-03-21T09:22:15.934Z,5.77
2019-03-21T09:24:42.150Z,5.27
2019-03-21T09:27:09.631Z,5.30
2019-03-21T09:29:36.130Z,4.10
2019-03-21T09:32:02.592Z,5.27
2019-03-21T09:34:29.090Z,4.97
2019-03-21T09:36:55.569Z,5.30
2019-03-21T09:39:22.013Z,4.10
2019-03-21T09:41:48.493Z,5.07
2019-03-21T09:44:15.072Z,4.30
2019-03-21T09:46:50.508Z,4.67
2019-03-21T09:49:10.361Z,5.43
2019-03-21T09:51:37.223Z,5.30
2019-03-21T09:54:09.523Z,5.03
2019-03-21T09:56:32.386Z,6.10
2019-03-21T09:58:59.043Z,6.40
2019-03-21T10:01:26.462Z,6.10
2019-03-21T10:03:53.142Z,5.60
2019-03-21T10:06:19.897Z,5.70
2019-03-21T10:08:46.402Z,5.60
2019-03-21T10:11:12.942Z,5.70
2019-03-21T10:13:39.622Z,5.62
2019-03-21T10:16:06.083Z,5.20
2019-03-21T10:18:32.843Z,5.12
2019-03-21T10:20:59.463Z,5.40
2019-03-21T10:23:26.163Z,5.45
2019-03-21T10:25:52.822Z,5.53
2019-03-21T10:28:19.582Z,5.35
2019-03-21T10:30:46.142Z,5.35
2019-03-21T10:33:12.703Z,5.78
2019-03-21T10:35:39.363Z,5.28
2019-03-21T10:38:05.923Z,5.37
2019-03-21T10:40:32.464Z,5.37
2019-03-21T10:42:59.062Z,5.12
2019-03-21T10:45:25.564Z,5.05
2019-03-21T10:47:51.962Z,4.28
2019-03-21T10:50:18.702Z,4.05
2019-03-21T10:52:45.162Z,4.95
2019-03-21T10:55:11.744Z,5.37
2019-03-21T10:57:38.395Z,4.55
2019-03-21T11:00:04.943Z,4.28
2019-03-21T11:02:31.422Z,4.40
2019-03-21T11:04:58.063Z,4.28
2019-03-21T11:07:24.482Z,4.85
2019-03-21T11:09:51.162Z,4.45
2019-03-21T11:12:17.802Z,4.67
2019-03-21T11:14:44.422Z,4.50
2019-03-21T11:17:10.862Z,4.40
2019-03-21T11:19:37.503Z,3.10
2019-03-21T11:22:06.513Z,3.45
2019-03-21T11:24:32.464Z,4.00
2019-03-21T11:26:59.083Z,4.33
2019-03-21T11:29:25.584Z,4.47
2019-03-21T11:31:52.088Z,4.35
2019-03-21T11:34:18.722Z,4.50
2019-03-21T11:36:45.362Z,3.95
2019-03-21T11:39:11.902Z,4.00
2019-03-21T11:41:38.534Z,4.00
2019-03-21T11:44:05.237Z,3.92
2019-03-21T11:46:31.785Z,6.00
2019-03-21T11:48:58.654Z,3.75
2019-03-21T11:51:25.174Z,4.35
2019-03-21T11:53:51.675Z,5.17
2019-03-21T11:56:18.355Z,4.40
2019-03-21T11:58:44.995Z,3.65
2019-03-21T12:01:11.647Z,4.12
2019-03-21T12:03:38.254Z,4.75
2019-03-21T12:06:04.774Z,4.70
2019-03-21T12:08:31.416Z,4.17
2019-03-21T12:10:58.011Z,4.28
2019-03-21T12:13:24.534Z,3.92
2019-03-21T12:15:51.094Z,4.00
2019-03-21T12:18:17.721Z,4.20
2019-03-21T12:20:44.214Z,3.02
2019-03-21T12:23:10.756Z,3.30
2019-03-21T12:25:37.434Z,3.12
2019-03-21T12:28:04.099Z,3.40
2019-03-21T12:30:30.657Z,3.42
2019-03-21T12:32:57.322Z,2.90
2019-03-21T12:35:23.954Z,4.15
2019-03-21T12:37:50.535Z,3.85
2019-03-21T12:40:17.254Z,4.03
2019-03-21T12:42:44.562Z,4.20
2019-03-21T12:45:11.256Z,3.45
2019-03-21T12:47:38.001Z,3.58
2019-03-21T12:50:04.760Z,4.30
2019-03-21T12:55:05.500Z,3.40
2019-03-21T12:56:19.609Z,4.55
2019-03-21T12:57:32.060Z,4.50
2019-03-21T12:59:58.731Z,4.17
2019-03-21T13:02:32.366Z,3.98
2019-03-21T13:04:53.980Z,4.20
2019-03-21T13:07:20.901Z,4.47
2019-03-21T13:09:48.061Z,4.53
2019-03-21T13:12:14.607Z,4.60
2019-03-21T13:14:41.281Z,4.25
2019-03-21T13:17:07.861Z,3.90
2019-03-21T13:19:34.382Z,4.50
2019-03-21T13:22:00.840Z,4.20
2019-03-21T13:24:27.480Z,3.40
2019-03-21T13:26:54.168Z,3.70
2019-03-21T13:29:20.861Z,3.70
2019-03-21T13:31:47.441Z,3.47
2019-03-21T13:34:14.041Z,4.10
2019-03-21T13:36:40.702Z,4.35
2019-03-21T13:39:07.341Z,3.90
2019-03-21T13:41:33.900Z,4.28
2019-03-21T13:44:00.480Z,3.87
2019-03-21T13:46:27.042Z,5.17
2019-03-21T13:48:53.600Z,4.15
2019-03-21T13:51:20.162Z,4.22
2019-03-21T13:53:46.820Z,4.30
2019-03-21T13:56:13.420Z,4.05
2019-03-21T13:58:40.140Z,4.12
2019-03-21T14:01:06.760Z,3.65
2019-03-21T14:03:33.320Z,3.17
2019-03-21T14:05:59.961Z,3.85
2019-03-21T14:08:26.541Z,3.95
2019-03-21T14:10:53.167Z,4.47
2019-03-21T14:13:19.687Z,3.65
2019-03-21T14:15:46.487Z,3.80
2019-03-21T14:18:13.008Z,4.12
2019-03-21T14:20:39.568Z,4.00
2019-03-21T14:23:16.392Z,3.30
2019-03-21T14:25:34.527Z,3.60
2019-03-21T14:28:01.088Z,3.02
2019-03-21T14:30:27.847Z,3.65
2019-03-21T14:32:54.331Z,3.50
2019-03-21T14:35:20.969Z,3.47
2019-03-21T14:37:47.715Z,3.50
2019-03-21T14:40:14.328Z,2.72
2019-03-21T14:42:41.153Z,3.35
2019-03-21T14:45:07.887Z,3.42
2019-03-21T14:47:36.417Z,3.15
2019-03-21T14:50:02.809Z,3.72
2019-03-21T14:52:29.508Z,3.15
2019-03-21T14:54:58.652Z,3.12
2019-03-21T14:57:24.467Z,3.20
2019-03-21T14:59:51.030Z,3.30
2019-03-21T15:02:17.568Z,3.17
2019-03-21T15:04:44.168Z,3.72
2019-03-21T15:07:10.669Z,3.83
2019-03-21T15:09:37.247Z,2.98
2019-03-21T15:12:03.847Z,2.62
2019-03-21T15:14:32.002Z,2.70
2019-03-21T15:16:58.787Z,2.50
2019-03-21T15:19:25.406Z,3.00
2019-03-21T15:21:52.063Z,2.80
2019-03-21T15:24:18.649Z,3.00
2019-03-21T15:26:45.409Z,2.77
2019-03-21T15:29:11.950Z,3.05
2019-03-21T15:31:38.754Z,3.40
2019-03-21T15:34:05.387Z,2.45
2019-03-21T15:36:31.829Z,2.80
2019-03-21T15:38:58.527Z,2.50
2019-03-21T15:41:25.167Z,2.92
2019-03-21T15:43:51.830Z,2.83
2019-03-21T15:46:18.470Z,3.00
2019-03-21T15:48:45.148Z,2.70
2019-03-21T15:51:11.730Z,2.92
2019-03-21T15:53:38.487Z,2.15
2019-03-21T15:56:05.149Z,2.35
2019-03-21T15:58:31.909Z,2.33
2019-03-21T16:00:58.567Z,2.70
2019-03-21T16:03:25.227Z,2.50
2019-03-21T16:05:51.806Z,3.17
2019-03-21T16:08:18.348Z,2.10
2019-03-21T16:10:45.110Z,3.02
2019-03-21T16:25:24.306Z,2.90
2019-03-21T16:27:50.864Z,2.87
2019-03-21T16:30:17.425Z,2.90
2019-03-21T16:32:43.984Z,2.70
2019-03-21T16:35:10.547Z,3.20
2019-03-21T16:37:37.206Z,3.50
2019-03-21T16:40:03.864Z,3.02
2019-03-21T16:42:30.425Z,2.85
2019-03-21T16:44:57.086Z,3.37
2019-03-21T16:47:23.965Z,3.60
2019-03-21T16:49:50.705Z,3.45
2019-03-21T16:52:17.264Z,2.90
2019-03-21T16:54:44.024Z,3.42
2019-03-21T16:57:10.705Z,3.42
2019-03-21T16:59:37.466Z,2.40
2019-03-21T17:02:04.124Z,2.95
2019-03-21T17:04:30.895Z,3.08
2019-03-21T17:06:57.560Z,3.00
2019-03-21T17:09:24.306Z,2.85
2019-03-21T17:11:50.864Z,2.70
2019-03-21T17:14:17.557Z,3.05
2019-03-21T17:16:44.186Z,3.05
2019-03-21T17:19:10.988Z,4.10
2019-03-21T17:21:37.605Z,3.22
2019-03-21T17:24:04.366Z,3.67
2019-03-21T17:26:31.026Z,4.05
2019-03-21T17:28:57.686Z,3.40
2019-03-21T17:31:24.345Z,3.47
2019-03-21T17:33:50.873Z,4.65
2019-03-21T17:36:20.474Z,4.12
2019-03-21T17:38:45.966Z,4.50
2019-03-21T17:41:12.625Z,4.05
2019-03-21T17:43:39.184Z,3.67
2019-03-21T17:46:05.948Z,4.28
2019-03-21T17:48:32.606Z,4.58
2019-03-21T17:50:59.267Z,7.03
2019-03-21T17:53:25.924Z,4.95
2019-03-21T17:55:52.587Z,4.65
2019-03-21T17:58:19.145Z,5.47
2019-03-21T18:00:45.805Z,4.15
2019-03-21T18:03:12.365Z,4.95
2019-03-21T18:05:39.033Z,4.35
2019-03-21T18:08:05.787Z,4.12
2019-03-21T18:10:32.546Z,4.40
2019-03-21T18:12:59.219Z,4.45
2019-03-21T18:15:25.824Z,4.00
2019-03-21T18:17:52.286Z,4.35
2019-03-21T18:20:18.943Z,5.17
2019-03-21T18:22:45.901Z,6.17
2019-03-21T18:25:12.661Z,6.20
2019-03-21T18:27:39.288Z,5.22
2019-03-21T18:30:06.039Z,5.12
2019-03-21T18:32:32.600Z,5.20
2019-03-21T18:34:59.359Z,5.17
2019-03-21T18:37:25.920Z,5.35
2019-03-21T18:39:52.679Z,5.37
2019-03-21T18:42:19.339Z,5.00
2019-03-21T18:44:45.886Z,4.37
2019-03-21T18:47:12.448Z,4.87
2019-03-21T18:49:39.209Z,3.77
2019-03-21T18:52:05.766Z,3.40
2019-03-21T18:54:32.327Z,4.08
2019-03-21T18:56:59.086Z,3.67
2019-03-21T18:59:25.646Z,4.03
2019-03-21T19:01:58.521Z,3.40
2019-03-21T19:04:20.602Z,3.75
2019-03-21T19:06:47.302Z,3.92
2019-03-21T19:09:14.037Z,3.10
2019-03-21T19:11:41.416Z,2.83
2019-03-21T19:14:08.177Z,3.27
2019-03-21T19:16:34.945Z,4.10
2019-03-21T19:19:01.595Z,3.50
2019-03-21T19:21:28.157Z,3.62
2019-03-21T19:23:54.718Z,4.08
2019-03-21T19:26:21.476Z,3.90
2019-03-21T19:28:48.264Z,4.30
2019-03-21T19:31:14.992Z,3.90
2019-03-21T19:33:41.541Z,4.30
2019-03-21T19:36:08.325Z,3.72
2019-03-21T19:38:35.070Z,4.75
2019-03-21T19:41:01.849Z,5.40
2019-03-21T19:43:28.503Z,5.33
2019-03-21T19:45:55.069Z,5.50
2019-03-21T19:48:21.823Z,5.35
2019-03-21T19:50:48.388Z,4.83
2019-03-21T19:53:14.981Z,6.17
2019-03-21T19:55:41.601Z,5.70
2019-03-21T19:58:08.164Z,6.80
2019-03-21T20:00:34.921Z,7.28
2019-03-21T20:03:01.588Z,5.87
2019-03-21T20:05:28.448Z,6.60
2019-03-21T20:07:54.986Z,5.37
2019-03-21T20:10:21.759Z,4.45
2019-03-21T20:12:49.759Z,5.33
2019-03-21T20:15:16.515Z,5.25
2019-03-21T20:17:43.065Z,5.97
2019-03-21T20:20:09.632Z,7.22
2019-03-21T20:22:36.293Z,6.12
2019-03-21T20:25:03.056Z,6.17
2019-03-21T20:27:29.686Z,6.85
2019-03-21T20:29:56.264Z,7.03
2019-03-21T20:32:22.937Z,7.00
2019-03-21T20:34:49.696Z,7.40
2019-03-21T20:37:16.458Z,6.87
2019-03-21T20:39:43.004Z,7.60
2019-03-21T20:42:09.780Z,7.10
2019-03-21T20:44:36.232Z,7.55
2019-03-21T20:47:02.887Z,7.83
2019-03-21T20:49:29.447Z,7.50
2019-03-21T20:51:56.106Z,7.58
2019-03-21T20:54:22.567Z,7.78
2019-03-21T20:56:49.229Z,6.67
2019-03-21T20:59:15.878Z,7.60
2019-03-21T21:01:42.552Z,7.15
2019-03-21T21:04:09.239Z,8.43
2019-03-21T21:06:36.071Z,7.25
2019-03-21T21:09:02.621Z,7.37
2019-03-21T21:11:29.297Z,6.62
2019-03-21T21:13:55.745Z,8.13
2019-03-21T21:16:22.380Z,8.60
2019-03-21T21:18:49.002Z,9.40
2019-03-21T21:21:15.591Z,8.08
2019-03-21T21:23:42.090Z,8.90
2019-03-21T21:26:08.952Z,7.80
2019-03-21T21:28:35.513Z,8.48
2019-03-21T21:31:02.285Z,7.22
2019-03-21T21:33:29.041Z,6.85
2019-03-21T21:35:55.681Z,7.45
2019-03-21T21:38:22.284Z,7.45
2019-03-21T21:40:49.112Z,7.17
2019-03-21T21:43:15.850Z,8.95
2019-03-21T21:45:42.432Z,9.53
2019-03-21T21:48:08.992Z,9.33
2019-03-21T21:50:35.552Z,9.60
2019-03-21T21:53:02.112Z,8.63
2019-03-21T21:55:28.672Z,8.23
2019-03-21T21:57:55.318Z,7.47
2019-03-21T22:00:21.883Z,6.50
2019-03-21T22:02:48.560Z,6.17
2019-03-21T22:05:15.200Z,5.17
2019-03-21T22:07:41.778Z,6.05
2019-03-21T22:10:08.520Z,5.50
2019-03-21T22:12:35.080Z,6.60
2019-03-21T22:15:01.601Z,6.15
2019-03-21T22:17:28.308Z,5.60
2019-03-21T22:19:54.968Z,5.67
2019-03-21T22:22:21.633Z,5.55
2019-03-21T22:24:48.291Z,5.83
2019-03-21T22:27:14.750Z,6.15
2019-03-21T22:29:41.590Z,6.12
2019-03-21T22:32:08.380Z,5.90
2019-03-21T22:34:34.917Z,6.05
2019-03-21T22:37:01.592Z,6.15
2019-03-21T22:39:28.275Z,6.05
2019-03-21T22:41:55.010Z,5.90
2019-03-21T22:44:21.662Z,5.92
2019-03-21T22:46:48.114Z,5.37
2019-03-21T22:49:15.087Z,6.12
2019-03-21T22:51:41.645Z,6.50
2019-03-21T22:54:08.199Z,6.35
2019-03-21T22:56:41.066Z,5.97
2019-03-21T22:59:03.131Z,7.20
2019-03-21T23:01:29.823Z,6.20
2019-03-21T23:03:56.383Z,6.35
2019-03-21T23:06:23.955Z,6.70
2019-03-21T23:08:51.128Z,6.65
2019-03-21T23:11:18.288Z,7.03
2019-03-21T23:13:45.803Z,6.40
2019-03-21T23:16:12.229Z,6.65
2019-03-21T23:18:38.793Z,5.70
2019-03-21T23:21:05.452Z,6.10
2019-03-21T23:23:32.001Z,5.35
2019-03-21T23:25:58.567Z,5.00
2019-03-21T23:28:25.431Z,5.33
2019-03-21T23:30:52.010Z,5.92
2019-03-21T23:33:18.669Z,5.58
2019-03-21T23:35:45.227Z,5.85
2019-03-21T23:38:11.961Z,6.25
2019-03-21T23:40:38.648Z,5.78
2019-03-21T23:43:05.295Z,5.97
2019-03-21T23:45:31.890Z,6.03
2019-03-21T23:47:58.453Z,5.97
2019-03-21T23:50:24.959Z,5.95
2019-03-21T23:52:51.625Z,5.35
2019-03-21T23:55:18.197Z,5.50
2019-03-21T23:57:44.847Z,5.65
